createdAt,value
2022-11-01T00:00:10.642Z,20.48
2022-11-01T00:02:38.912Z,18.77
2022-11-01T00:05:07.614Z,21.58
2022-11-01T00:07:35.649Z,22.10
2022-11-01T00:10:03.750Z,19.38
2022-11-01T00:12:34.632Z,20.00
2022-11-01T00:15:02.597Z,21.92
2022-11-01T00:17:32.057Z,21.98
2022-11-01T00:20:00.873Z,26.33
2022-11-01T00:22:28.946Z,20.20
2022-11-01T00:24:56.881Z,22.88
2022-11-01T00:27:24.979Z,21.35
2022-11-01T00:29:52.957Z,20.40
2022-11-01T00:32:20.993Z,21.40
2022-11-01T00:34:50.131Z,20.42
2022-11-01T00:37:18.145Z,20.67
2022-11-01T00:39:46.104Z,22.85
2022-11-01T00:42:14.337Z,19.60
2022-11-01T00:44:42.356Z,21.25
2022-11-01T00:47:10.290Z,20.85
2022-11-01T00:49:39.212Z,18.25
2022-11-01T00:52:07.154Z,25.35
2022-11-01T00:54:35.202Z,20.63
2022-11-01T00:57:05.375Z,20.27
2022-11-01T00:59:33.433Z,21.30
2022-11-01T01:02:01.679Z,17.95
2022-11-01T01:04:29.973Z,21.05
2022-11-01T01:06:58.019Z,20.38
2022-11-01T01:09:26.058Z,22.48
2022-11-01T01:11:55.091Z,20.85
2022-11-01T01:14:28.508Z,23.02
2022-11-01T01:16:59.420Z,17.75
2022-11-01T01:19:29.029Z,22.98
2022-11-01T01:24:25.052Z,19.48
2022-11-01T01:26:53.191Z,20.92
2022-11-01T01:29:21.260Z,18.83
2022-11-01T01:31:51.361Z,20.98
2022-11-01T01:34:21.640Z,21.75
2022-11-01T01:36:49.588Z,19.85
2022-11-01T01:39:17.591Z,22.10
2022-11-01T01:41:57.805Z,19.92
2022-11-01T01:45:10.255Z,18.63
2022-11-01T01:47:42.059Z,21.92
2022-11-01T01:50:15.863Z,22.70
2022-11-01T01:52:46.908Z,25.73
2022-11-01T01:55:20.680Z,19.98
2022-11-01T01:57:50.058Z,16.73
2022-11-01T02:00:18.597Z,23.17
2022-11-01T02:02:47.929Z,19.70
2022-11-01T02:05:31.300Z,20.83
2022-11-01T02:08:03.634Z,20.83
2022-11-01T02:10:32.942Z,23.55
2022-11-01T02:13:01.038Z,22.08
2022-11-01T02:15:41.549Z,26.52
2022-11-01T02:18:45.678Z,24.42
2022-11-01T02:21:29.979Z,25.48
2022-11-01T02:23:57.891Z,19.83
2022-11-01T02:26:51.152Z,21.23
2022-11-01T02:29:38.132Z,22.10
2022-11-01T02:32:23.061Z,22.17
2022-11-01T02:34:58.349Z,17.50
2022-11-01T02:37:55.200Z,20.48
2022-11-01T02:40:47.923Z,20.08
2022-11-01T02:43:30.613Z,19.65
2022-11-01T02:46:22.389Z,20.20
2022-11-01T02:48:50.771Z,21.02
2022-11-01T02:51:23.348Z,20.42
2022-11-01T02:53:51.356Z,18.25
2022-11-01T02:56:20.565Z,19.20
2022-11-01T02:58:49.845Z,20.67
2022-11-01T03:01:25.753Z,22.23
2022-11-01T03:03:56.231Z,19.35
2022-11-01T03:06:48.687Z,19.58
2022-11-01T03:09:17.239Z,18.05
2022-11-01T03:12:09.497Z,19.98
2022-11-01T03:14:50.511Z,19.88
2022-11-01T03:17:24.106Z,18.65
2022-11-01T03:20:26.696Z,17.60
2022-11-01T03:23:01.949Z,20.48
2022-11-01T03:25:41.406Z,17.58
2022-11-01T03:28:18.555Z,20.65
2022-11-01T03:30:54.164Z,16.05
2022-11-01T03:33:25.018Z,17.77
2022-11-01T03:35:57.046Z,15.93
2022-11-01T03:38:30.091Z,13.98
2022-11-01T03:41:03.646Z,17.92
2022-11-01T03:43:33.818Z,15.90
2022-11-01T03:46:02.015Z,16.08
2022-11-01T03:48:30.125Z,16.58
2022-11-01T03:50:58.135Z,17.55
2022-11-01T03:53:28.790Z,18.15
2022-11-01T03:55:56.688Z,17.65
2022-11-01T03:58:24.814Z,18.85
2022-11-01T04:00:53.805Z,17.08
2022-11-01T04:03:21.812Z,23.95
2022-11-01T04:05:49.719Z,21.25
2022-11-01T04:08:18.301Z,18.67
2022-11-01T04:10:46.223Z,17.90
2022-11-01T04:13:14.360Z,21.77
2022-11-01T04:16:00.703Z,20.15
2022-11-01T04:18:47.056Z,19.30
2022-11-01T04:21:18.010Z,19.20
2022-11-01T04:23:47.159Z,17.85
2022-11-01T04:26:20.771Z,19.83
2022-11-01T04:28:58.588Z,17.15
2022-11-01T04:31:36.159Z,17.17
2022-11-01T04:34:05.755Z,19.75
2022-11-01T04:39:02.614Z,17.80
2022-11-01T04:41:30.897Z,18.65
2022-11-01T04:44:00.512Z,17.45
2022-11-01T04:49:00.695Z,20.75
2022-11-01T04:51:28.798Z,24.85
2022-11-01T04:53:57.185Z,23.15
2022-11-01T04:56:25.194Z,18.13
2022-11-01T04:58:53.327Z,24.20
2022-11-01T05:01:21.561Z,20.90
2022-11-01T05:03:51.345Z,22.40
2022-11-01T05:08:47.772Z,20.77
2022-11-01T05:11:15.913Z,23.92
2022-11-01T05:13:43.817Z,21.88
2022-11-01T05:16:19.454Z,23.58
2022-11-01T05:18:50.021Z,26.08
2022-11-01T05:21:18.099Z,28.70
2022-11-01T05:23:50.394Z,26.45
2022-11-01T05:26:18.459Z,27.58
2022-11-01T05:28:46.536Z,25.45
2022-11-01T05:31:15.481Z,22.15
2022-11-01T05:33:43.530Z,23.85
2022-11-01T05:36:11.609Z,25.65
2022-11-01T05:38:39.653Z,25.83
2022-11-01T05:41:07.644Z,23.85
2022-11-01T05:43:35.686Z,26.02
2022-11-01T05:46:08.163Z,20.15
2022-11-01T05:48:36.251Z,25.55
2022-11-01T05:51:04.228Z,23.85
2022-11-01T05:53:32.397Z,22.58
2022-11-01T05:56:00.549Z,27.50
2022-11-01T05:58:30.826Z,24.40
2022-11-01T06:01:06.225Z,24.27
2022-11-01T06:03:35.476Z,26.45
2022-11-01T06:06:04.205Z,22.02
2022-11-01T06:08:32.886Z,24.37
2022-11-01T06:11:07.124Z,24.27
2022-11-01T06:13:35.267Z,28.08
2022-11-01T06:16:05.690Z,24.60
2022-11-01T06:18:35.511Z,23.73
2022-11-01T06:21:03.483Z,23.08
2022-11-01T06:23:31.513Z,23.67
2022-11-01T06:26:05.711Z,25.20
2022-11-01T06:28:34.097Z,25.00
2022-11-01T06:31:03.310Z,26.98
2022-11-01T06:33:32.634Z,23.90
2022-11-01T06:36:02.291Z,23.48
2022-11-01T06:38:30.663Z,24.92
2022-11-01T06:40:58.784Z,27.02
2022-11-01T06:43:26.872Z,23.88
2022-11-01T06:45:55.141Z,25.83
2022-11-01T06:48:24.132Z,27.33
2022-11-01T06:50:54.358Z,26.50
2022-11-01T06:53:25.738Z,28.27
2022-11-01T06:55:53.907Z,25.42
2022-11-01T06:58:21.883Z,26.77
2022-11-01T07:00:50.035Z,27.08
2022-11-01T07:03:18.596Z,28.13
2022-11-01T07:05:49.080Z,31.63
2022-11-01T07:08:17.029Z,29.27
2022-11-01T07:10:45.477Z,23.85
2022-11-01T07:13:14.774Z,27.08
2022-11-01T07:15:43.023Z,21.67
2022-11-01T07:18:12.886Z,27.98
2022-11-01T07:20:43.526Z,23.15
2022-11-01T07:23:17.100Z,25.13
2022-11-01T07:25:45.324Z,26.38
2022-11-01T07:28:13.444Z,22.80
2022-11-01T07:30:41.526Z,21.50
2022-11-01T07:33:10.044Z,23.08
2022-11-01T07:35:38.052Z,24.58
2022-11-01T07:38:09.744Z,21.95
2022-11-01T07:40:42.146Z,18.63
2022-11-01T07:43:10.120Z,20.42
2022-11-01T07:45:38.081Z,20.38
2022-11-01T07:48:11.067Z,20.10
2022-11-01T07:50:40.434Z,20.00
2022-11-01T07:53:11.166Z,16.80
2022-11-01T07:55:39.373Z,15.95
2022-11-01T07:58:08.921Z,18.70
2022-11-01T08:00:37.709Z,10.88
2022-11-01T08:03:12.143Z,12.30
2022-11-01T08:05:40.973Z,14.27
2022-11-01T08:08:10.505Z,11.10
2022-11-01T08:13:22.157Z,11.70
2022-11-01T08:15:52.389Z,12.95
2022-11-01T08:18:25.101Z,14.57
2022-11-01T08:20:53.104Z,11.88
2022-11-01T08:23:22.662Z,12.25
2022-11-01T08:25:50.677Z,9.48
2022-11-01T08:28:21.187Z,15.85
2022-11-01T08:30:52.291Z,10.75
2022-11-01T08:33:20.315Z,11.10
2022-11-01T08:35:50.637Z,10.15
2022-11-01T08:38:22.608Z,9.68
2022-11-01T08:40:50.676Z,12.32
2022-11-01T08:43:18.971Z,12.90
2022-11-01T08:45:48.297Z,11.68
2022-11-01T08:48:16.247Z,13.75
2022-11-01T08:50:44.325Z,10.43
2022-11-01T08:53:16.825Z,10.52
2022-11-01T08:55:44.986Z,11.65
2022-11-01T08:58:13.068Z,10.48
2022-11-01T09:00:42.169Z,9.18
2022-11-01T09:03:10.230Z,7.97
2022-11-01T09:05:38.305Z,9.80
2022-11-01T09:08:06.948Z,11.85
2022-11-01T09:10:35.698Z,10.93
2022-11-01T09:13:04.163Z,8.73
2022-11-01T09:15:34.596Z,10.73
2022-11-01T09:18:06.964Z,10.48
2022-11-01T09:20:35.080Z,14.50
2022-11-01T09:23:05.303Z,10.55
2022-11-01T09:25:33.490Z,10.18
2022-11-01T09:28:01.525Z,11.45
2022-11-01T09:30:32.666Z,9.93
2022-11-01T09:33:05.539Z,9.38
2022-11-01T09:35:34.246Z,9.25
2022-11-01T09:38:05.628Z,10.57
2022-11-01T09:40:44.736Z,9.95
2022-11-01T09:43:23.508Z,8.93
2022-11-01T09:45:53.286Z,13.33
2022-11-01T09:48:21.963Z,8.45
2022-11-01T09:50:53.358Z,8.07
2022-11-01T09:53:30.243Z,7.63
2022-11-01T09:56:06.831Z,10.30
2022-11-01T09:58:59.826Z,9.43
2022-11-01T10:01:52.980Z,7.68
2022-11-01T10:04:29.764Z,8.25
2022-11-01T10:07:09.226Z,9.27
2022-11-01T10:09:55.255Z,7.38
2022-11-01T10:13:00.110Z,7.68
2022-11-01T10:16:13.382Z,9.77
2022-11-01T10:19:00.932Z,7.85
2022-11-01T10:21:45.265Z,7.57
2022-11-01T10:24:20.383Z,8.20
2022-11-01T10:26:54.947Z,8.63
2022-11-01T10:29:41.812Z,8.23
2022-11-01T10:32:44.136Z,8.00
2022-11-01T10:37:57.366Z,8.57
2022-11-01T10:40:45.106Z,8.85
2022-11-01T10:43:21.249Z,8.68
2022-11-01T10:45:54.665Z,7.43
2022-11-01T10:48:45.688Z,8.82
2022-11-01T10:51:18.217Z,8.38
2022-11-01T10:53:51.096Z,9.60
2022-11-01T10:56:42.599Z,9.30
2022-11-01T10:59:21.497Z,7.68
2022-11-01T11:01:53.727Z,8.52
2022-11-01T11:04:25.582Z,10.20
2022-11-01T11:06:53.673Z,9.00
2022-11-01T11:09:38.386Z,9.93
2022-11-01T11:12:15.601Z,8.68
2022-11-01T11:14:48.289Z,8.75
2022-11-01T11:17:23.536Z,10.25
2022-11-01T11:19:54.437Z,9.73
2022-11-01T11:22:23.928Z,9.07
2022-11-01T11:24:53.408Z,9.77
2022-11-01T11:27:34.533Z,8.40
2022-11-01T11:30:09.172Z,9.45
2022-11-01T11:32:42.775Z,8.35
2022-11-01T11:35:20.075Z,9.07
2022-11-01T11:38:05.639Z,8.52
2022-11-01T11:40:41.559Z,8.90
2022-11-01T11:43:24.336Z,11.77
2022-11-01T11:46:19.816Z,10.18
2022-11-01T11:49:03.016Z,10.35
2022-11-01T11:51:38.666Z,11.02
2022-11-01T11:54:25.756Z,10.43
2022-11-01T11:57:09.240Z,15.45
2022-11-01T11:59:38.636Z,10.50
2022-11-01T12:06:24.897Z,10.88
2022-11-01T12:08:58.490Z,11.95
2022-11-01T12:11:47.053Z,13.52
2022-11-01T12:14:24.106Z,13.23
2022-11-01T12:16:53.639Z,11.23
2022-11-01T12:19:31.766Z,16.80
2022-11-01T12:22:06.322Z,13.48
2022-11-01T12:24:53.156Z,23.48
2022-11-01T12:27:27.458Z,15.98
2022-11-01T12:30:16.955Z,15.57
2022-11-01T12:33:04.829Z,16.30
2022-11-01T12:35:42.085Z,14.70
2022-11-01T12:38:13.298Z,19.00
2022-11-01T12:40:46.356Z,15.88
2022-11-01T12:43:19.782Z,17.65
2022-11-01T12:46:17.215Z,17.40
2022-11-01T12:48:52.583Z,17.63
2022-11-01T12:51:32.259Z,17.48
2022-11-01T12:54:17.845Z,16.17
2022-11-01T12:56:46.706Z,20.02
2022-11-01T12:59:21.834Z,20.90
2022-11-01T13:01:57.258Z,16.70
2022-11-01T13:04:35.467Z,18.98
2022-11-01T13:07:33.941Z,18.10
2022-11-01T13:10:10.646Z,21.52
2022-11-01T13:13:12.732Z,18.30
2022-11-01T13:15:55.392Z,22.75
2022-11-01T13:18:50.752Z,19.25
2022-11-01T13:21:26.752Z,21.55
2022-11-01T13:24:11.508Z,21.90
2022-11-01T13:26:51.621Z,22.40
2022-11-01T13:29:22.088Z,24.38
2022-11-01T13:32:19.769Z,35.35
2022-11-01T13:34:55.871Z,32.25
2022-11-01T13:37:46.124Z,27.15
2022-11-01T13:41:04.672Z,24.13
2022-11-01T13:43:45.861Z,23.05
2022-11-01T13:46:50.006Z,23.38
2022-11-01T13:50:03.183Z,19.75
2022-11-01T13:52:35.727Z,23.35
2022-11-01T13:55:29.265Z,21.48
2022-11-01T13:57:58.401Z,19.92
2022-11-01T14:00:44.887Z,21.55
2022-11-01T14:03:28.123Z,18.50
2022-11-01T14:06:11.917Z,24.10
2022-11-01T14:08:47.911Z,23.13
2022-11-01T14:11:46.513Z,24.85
2022-11-01T14:14:34.483Z,21.40
2022-11-01T14:17:27.614Z,23.98
2022-11-01T14:20:02.512Z,25.67
2022-11-01T14:22:33.556Z,20.23
2022-11-01T14:25:25.440Z,18.48
2022-11-01T14:28:19.355Z,17.40
2022-11-01T14:30:52.652Z,18.55
2022-11-01T14:33:23.179Z,16.42
2022-11-01T14:35:58.675Z,14.65
2022-11-01T14:38:41.795Z,18.80
2022-11-01T14:41:14.736Z,18.55
2022-11-01T14:43:54.559Z,15.95
2022-11-01T14:46:27.444Z,17.25
2022-11-01T14:49:32.151Z,14.40
2022-11-01T14:52:36.355Z,15.52
2022-11-01T14:55:17.803Z,15.23
2022-11-01T14:57:46.561Z,15.55
2022-11-01T15:00:32.539Z,15.53
2022-11-01T15:03:02.929Z,13.50
2022-11-01T15:05:31.773Z,14.80
2022-11-01T15:08:01.136Z,14.23
2022-11-01T15:10:41.238Z,16.00
2022-11-01T15:13:16.025Z,15.88
2022-11-01T15:15:44.595Z,14.75
2022-11-01T15:18:20.807Z,19.55
2022-11-01T15:20:53.434Z,19.77
2022-11-01T15:23:27.894Z,22.52
2022-11-01T15:25:58.330Z,25.45
2022-11-01T15:28:34.413Z,29.45
2022-11-01T15:31:07.115Z,28.10
2022-11-01T15:33:35.495Z,27.38
2022-11-01T15:36:24.986Z,22.85
2022-11-01T15:38:56.944Z,16.50
2022-11-01T15:41:36.287Z,18.77
2022-11-01T15:44:07.954Z,19.33
2022-11-01T15:46:42.999Z,20.15
2022-11-01T15:49:18.629Z,21.63
2022-11-01T15:51:57.875Z,21.58
2022-11-01T15:54:35.481Z,19.25
2022-11-01T15:57:14.676Z,16.65
2022-11-01T15:59:52.905Z,17.17
2022-11-01T16:02:32.313Z,15.35
2022-11-01T16:05:01.511Z,14.00
2022-11-01T16:07:34.323Z,15.30
2022-11-01T16:10:06.659Z,17.38
2022-11-01T16:12:39.420Z,18.27
2022-11-01T16:15:23.959Z,16.17
2022-11-01T16:17:57.338Z,14.25
2022-11-01T16:20:39.869Z,15.82
2022-11-01T16:25:42.130Z,15.88
2022-11-01T16:28:10.051Z,13.25
2022-11-01T16:30:49.600Z,13.15
2022-11-01T16:33:28.504Z,13.88
2022-11-01T16:36:43.981Z,15.95
2022-11-01T16:39:28.707Z,15.77
2022-11-01T16:41:56.950Z,16.17
2022-11-01T16:44:25.150Z,19.52
2022-11-01T16:46:55.805Z,19.55
2022-11-01T16:49:26.689Z,20.48
2022-11-01T16:51:57.216Z,20.10
2022-11-01T16:54:27.106Z,18.25
2022-11-01T16:56:58.899Z,22.98
2022-11-01T16:59:27.083Z,22.80
2022-11-01T17:01:59.137Z,24.92
2022-11-01T17:04:28.525Z,23.40
2022-11-01T17:06:58.966Z,23.50
2022-11-01T17:09:31.627Z,20.08
2022-11-01T17:11:59.866Z,19.20
2022-11-01T17:14:28.067Z,18.38
2022-11-01T17:16:57.044Z,19.05
2022-11-01T17:19:34.457Z,17.80
2022-11-01T17:22:21.937Z,20.40
2022-11-01T17:24:50.221Z,16.35
2022-11-01T17:27:19.640Z,15.57
2022-11-01T17:29:47.833Z,19.20
2022-11-01T17:32:15.803Z,17.15
2022-11-01T17:34:43.840Z,18.05
2022-11-01T17:37:18.444Z,16.35
2022-11-01T17:39:46.403Z,17.52
2022-11-01T17:42:14.406Z,21.45
2022-11-01T17:44:43.718Z,17.25
2022-11-01T17:47:15.345Z,15.57
2022-11-01T17:49:43.288Z,17.30
2022-11-01T17:52:13.452Z,17.95
2022-11-01T17:54:41.555Z,15.10
2022-11-01T17:57:09.558Z,18.00
2022-11-01T17:59:40.875Z,16.00
2022-11-01T18:02:12.923Z,15.73
2022-11-01T18:04:41.216Z,15.68
2022-11-01T18:07:15.564Z,15.43
2022-11-01T18:09:43.583Z,18.60
2022-11-01T18:12:31.113Z,18.85
2022-11-01T18:15:09.243Z,13.32
2022-11-01T18:18:35.438Z,12.07
2022-11-01T18:21:46.814Z,15.52
2022-11-01T18:24:22.411Z,16.20
2022-11-01T18:26:52.137Z,11.52
2022-11-01T18:29:25.827Z,13.93
2022-11-01T18:32:19.471Z,13.68
2022-11-01T18:35:20.446Z,14.07
2022-11-01T18:38:03.648Z,15.95
2022-11-01T18:41:00.240Z,13.93
2022-11-01T18:43:33.118Z,15.75
2022-11-01T18:46:24.039Z,15.95
2022-11-01T18:49:04.190Z,15.32
2022-11-01T18:51:35.783Z,11.65
2022-11-01T18:54:09.464Z,18.08
2022-11-01T18:56:50.534Z,12.85
2022-11-01T18:59:28.197Z,12.90
2022-11-01T19:02:01.256Z,14.80
2022-11-01T19:04:36.426Z,12.30
2022-11-01T19:07:16.686Z,13.40
2022-11-01T19:09:54.881Z,15.45
2022-11-01T19:12:30.504Z,14.57
2022-11-01T19:15:05.627Z,15.98
2022-11-01T19:17:39.333Z,16.17
2022-11-01T19:20:30.664Z,15.02
2022-11-01T19:23:04.790Z,14.88
2022-11-01T19:25:35.961Z,12.50
2022-11-01T19:28:29.387Z,15.35
2022-11-01T19:31:03.949Z,15.50
2022-11-01T19:33:42.346Z,14.15
2022-11-01T19:36:20.438Z,16.52
2022-11-01T19:38:49.990Z,14.45
2022-11-01T19:44:02.823Z,14.70
2022-11-01T19:46:31.313Z,15.85
2022-11-01T19:48:59.516Z,14.40
2022-11-01T19:51:27.444Z,16.80
2022-11-01T19:53:55.369Z,13.85
2022-11-01T19:56:28.730Z,15.23
2022-11-01T19:58:59.231Z,15.80
2022-11-01T20:01:41.661Z,16.05
2022-11-01T20:04:29.602Z,14.07
2022-11-01T20:07:17.784Z,15.00
2022-11-01T20:09:45.868Z,14.75
2022-11-01T20:12:19.982Z,15.52
2022-11-01T20:14:51.132Z,16.35
2022-11-01T20:17:19.434Z,18.70
2022-11-01T20:19:47.465Z,14.88
2022-11-01T20:22:16.750Z,16.33
2022-11-01T20:24:44.648Z,15.30
2022-11-01T20:27:12.550Z,19.35
2022-11-01T20:29:40.651Z,16.33
2022-11-01T20:32:08.595Z,15.73
2022-11-01T20:34:37.051Z,15.15
2022-11-01T20:37:27.346Z,15.93
2022-11-01T20:39:53.203Z,18.00
2022-11-01T20:42:21.396Z,18.42
2022-11-01T20:44:49.378Z,14.52
2022-11-01T20:47:17.390Z,15.07
2022-11-01T20:49:46.483Z,16.65
2022-11-01T20:52:38.094Z,14.40
2022-11-01T20:55:03.762Z,15.55
2022-11-01T20:57:31.692Z,20.60
2022-11-01T20:59:59.650Z,16.45
2022-11-01T21:02:28.935Z,18.05
2022-11-01T21:05:15.654Z,16.23
2022-11-01T21:07:47.971Z,16.70
2022-11-01T21:10:44.104Z,16.13
2022-11-01T21:13:21.831Z,19.30
2022-11-01T21:15:50.580Z,18.05
2022-11-01T21:18:18.497Z,18.10
2022-11-01T21:20:50.010Z,15.98
2022-11-01T21:23:32.979Z,16.83
2022-11-01T21:26:04.284Z,18.35
2022-11-01T21:28:43.106Z,16.65
2022-11-01T21:31:11.004Z,15.60
2022-11-01T21:33:43.638Z,16.67
2022-11-01T21:36:40.197Z,17.40
2022-11-01T21:39:34.210Z,18.80
2022-11-01T21:42:07.247Z,15.98
2022-11-01T21:44:45.373Z,18.38
2022-11-01T21:47:22.331Z,19.63
2022-11-01T21:49:51.340Z,18.80
2022-11-01T21:52:23.772Z,18.13
2022-11-01T21:54:53.354Z,21.90
2022-11-01T21:59:49.244Z,17.33
2022-11-01T22:02:17.376Z,17.98
2022-11-01T22:04:46.086Z,15.63
2022-11-01T22:07:15.168Z,16.73
2022-11-01T22:09:44.128Z,15.82
2022-11-01T22:12:12.053Z,15.18
2022-11-01T22:14:41.637Z,20.33
2022-11-01T22:17:09.741Z,19.67
2022-11-01T22:19:37.696Z,18.77
2022-11-01T22:22:05.712Z,19.08
2022-11-01T22:24:33.663Z,18.75
2022-11-01T22:27:02.968Z,16.30
2022-11-01T22:29:31.094Z,16.13
2022-11-01T22:31:58.999Z,17.25
2022-11-01T22:34:26.886Z,16.13
2022-11-01T22:36:55.936Z,14.23
2022-11-01T22:39:27.291Z,17.83
2022-11-01T22:41:55.566Z,15.63
2022-11-01T22:44:29.874Z,15.70
2022-11-01T22:47:03.078Z,18.45
2022-11-01T22:49:43.250Z,16.77
2022-11-01T22:52:27.468Z,16.90
2022-11-01T22:55:11.683Z,16.13
2022-11-01T22:57:46.723Z,16.77
2022-11-01T23:00:39.812Z,18.00
2022-11-01T23:03:25.939Z,17.30
2022-11-01T23:05:58.985Z,18.45
2022-11-01T23:08:31.041Z,15.43
2022-11-01T23:11:00.993Z,19.60
2022-11-01T23:13:53.488Z,19.17
2022-11-01T23:16:24.548Z,14.90
2022-11-01T23:18:54.690Z,17.20
2022-11-01T23:21:24.159Z,17.08
2022-11-01T23:26:21.375Z,19.58
2022-11-01T23:28:53.285Z,26.42
2022-11-01T23:31:22.520Z,19.90
2022-11-01T23:33:51.181Z,17.58
2022-11-01T23:36:19.361Z,18.27
2022-11-01T23:39:02.465Z,16.52
2022-11-01T23:41:46.416Z,17.73
2022-11-01T23:44:49.903Z,17.02
2022-11-01T23:47:21.158Z,17.60
2022-11-01T23:49:56.929Z,16.95
2022-11-01T23:52:42.130Z,16.70
2022-11-01T23:55:27.661Z,14.07
2022-11-01T23:58:04.628Z,18.10
